Time;durP1;ratioP1;P1;durP2;ratioP2;P2;SDS_P1;SDS_P2;PMS_P1;PMS_P2;Temp;Humidity;BMP_temperature;BMP_pressure;BME280_temperature;BME280_humidity;BME280_pressure;Samples;Min_cycle;Max_cycle;Signal;HPM_P1;HPM_P2
2024/04/06 00:01:24;;;;;;;10.75;0.85;;;19.10;45.10;;;;;;6293548;28;20045;-69
2024/04/06 00:04:25;;;;;;;5.07;0.85;;;19.00;45.30;;;;;;6298807;28;20103;-70
2024/04/06 00:07:27;;;;;;;5.20;1.00;;;18.90;45.30;;;;;;6286779;28;20013;-69
2024/04/06 00:10:28;;;;;;;1.98;0.80;;;18.90;45.50;;;;;;6287452;28;20062;-69
2024/04/06 00:13:29;;;;;;;5.05;0.80;;;18.90;45.50;;;;;;6291553;28;20023;-70
2024/04/06 00:16:30;;;;;;;1.15;0.90;;;18.90;45.70;;;;;;6288462;28;20040;-70
2024/04/06 00:19:32;;;;;;;3.25;1.30;;;18.90;45.70;;;;;;6304458;28;20017;-70
2024/04/06 00:22:34;;;;;;;3.55;1.00;;;18.80;45.90;;;;;;6298248;28;20179;-69
2024/04/06 00:25:35;;;;;;;4.07;0.80;;;18.80;46.00;;;;;;6305808;28;20066;-70
2024/04/06 00:28:36;;;;;;;7.88;0.98;;;18.80;46.20;;;;;;6290978;28;20127;-69
2024/04/06 00:31:37;;;;;;;3.03;0.85;;;18.70;46.30;;;;;;6304409;28;20064;-69
2024/04/06 00:34:38;;;;;;;6.03;0.80;;;18.70;46.40;;;;;;6287341;28;20127;-70
2024/04/06 00:37:39;;;;;;;2.58;1.23;;;18.70;46.30;;;;;;6257535;28;20032;-70
2024/04/06 00:40:40;;;;;;;4.63;0.90;;;18.70;46.30;;;;;;6306808;28;20031;-70
2024/04/06 00:43:40;;;;;;;1.15;0.77;;;18.70;46.30;;;;;;6298564;28;20515;-69
2024/04/06 00:46:41;;;;;;;5.45;1.00;;;18.70;46.30;;;;;;6286880;28;20512;-68
2024/04/06 00:49:42;;;;;;;2.38;0.90;;;18.70;46.50;;;;;;6285976;28;20028;-71
2024/04/06 00:52:43;;;;;;;3.08;0.85;;;18.70;46.40;;;;;;6294683;28;20433;-69
2024/04/06 00:55:44;;;;;;;3.08;0.80;;;18.60;46.60;;;;;;6289340;28;20044;-71
2024/04/06 00:58:45;;;;;;;3.30;0.63;;;18.60;46.60;;;;;;6281098;28;20052;-70
2024/04/06 01:01:47;;;;;;;4.35;1.02;;;18.60;46.60;;;;;;6282724;28;20059;-70
2024/04/06 01:04:47;;;;;;;1.98;0.82;;;18.60;46.60;;;;;;6284936;28;20402;-69
2024/04/06 01:07:49;;;;;;;3.70;1.08;;;18.50;46.80;;;;;;6307439;28;20125;-69
2024/04/06 01:10:50;;;;;;;1.75;0.88;;;18.50;46.80;;;;;;6304832;28;20078;-69
2024/04/06 01:13:51;;;;;;;2.28;1.00;;;18.40;46.90;;;;;;6310293;28;20060;-68
2024/04/06 01:16:52;;;;;;;3.53;0.77;;;18.40;47.10;;;;;;6300029;28;20178;-68
2024/04/06 01:19:52;;;;;;;1.42;0.60;;;18.30;47.20;;;;;;6290143;28;20508;-69
2024/04/06 01:22:54;;;;;;;5.70;0.80;;;18.30;47.30;;;;;;6273842;28;20094;-69
2024/04/06 01:25:54;;;;;;;4.63;1.23;;;18.20;47.50;;;;;;6306502;28;20012;-69
2024/04/06 01:28:55;;;;;;;1.15;0.80;;;18.20;47.60;;;;;;6303363;28;20040;-70
2024/04/06 01:31:56;;;;;;;1.45;0.80;;;18.20;47.60;;;;;;6297855;28;20024;-70
2024/04/06 01:34:59;;;;;;;5.53;1.02;;;18.20;47.70;;;;;;6302932;28;20031;-69
2024/04/06 01:38:00;;;;;;;2.35;0.80;;;18.20;47.90;;;;;;6294860;28;20051;-70
2024/04/06 01:41:01;;;;;;;7.60;1.45;;;18.10;47.90;;;;;;6300580;28;20052;-70
2024/04/06 01:44:02;;;;;;;4.85;0.90;;;18.10;48.10;;;;;;6305115;28;20042;-68
2024/04/06 01:47:03;;;;;;;1.20;0.93;;;18.10;48.20;;;;;;6290414;28;20024;-69
2024/04/06 01:50:08;;;;;;;3.58;1.25;;;18.10;48.10;;;;;;6305509;28;20144;-69
2024/04/06 01:53:09;;;;;;;1.85;1.10;;;18.10;48.10;;;;;;6304264;28;20456;-69
2024/04/06 01:56:10;;;;;;;3.08;0.75;;;18.10;48.10;;;;;;6310098;28;20035;-68
2024/04/06 01:59:11;;;;;;;2.97;1.67;;;18.10;48.10;;;;;;6307232;28;20031;-70
2024/04/06 02:02:12;;;;;;;3.97;1.10;;;18.00;48.20;;;;;;6306493;28;20120;-70
2024/04/06 02:05:13;;;;;;;3.22;0.90;;;18.00;48.90;;;;;;6294652;28;20020;-70
2024/04/06 02:08:14;;;;;;;6.40;1.20;;;17.90;48.40;;;;;;6309236;28;20027;-68
2024/04/06 02:11:15;;;;;;;3.13;0.85;;;17.90;48.60;;;;;;6285666;28;20036;-68
2024/04/06 02:14:16;;;;;;;4.90;1.20;;;17.80;48.70;;;;;;6306442;28;20099;-72
2024/04/06 02:17:16;;;;;;;1.48;0.85;;;17.80;48.90;;;;;;6306924;28;20024;-70
2024/04/06 02:20:17;;;;;;;2.63;0.80;;;17.70;48.90;;;;;;6290034;28;20051;-70
2024/04/06 02:23:18;;;;;;;2.72;1.17;;;17.70;49.00;;;;;;6295613;28;20067;-72
2024/04/06 02:26:19;;;;;;;1.17;0.88;;;17.70;49.30;;;;;;6308842;28;20470;-70
2024/04/06 02:29:20;;;;;;;1.17;0.70;;;17.60;49.40;;;;;;6307211;28;20016;-70
2024/04/06 02:32:21;;;;;;;6.28;1.35;;;17.50;49.40;;;;;;6308307;28;20538;-69
2024/04/06 02:35:22;;;;;;;2.17;0.80;;;17.50;49.50;;;;;;6308848;28;20448;-67
2024/04/06 02:38:23;;;;;;;3.08;0.90;;;17.50;49.60;;;;;;6307772;28;20202;-70
2024/04/06 02:41:23;;;;;;;3.30;0.90;;;17.50;49.70;;;;;;6285274;28;20410;-71
2024/04/06 02:44:24;;;;;;;3.47;1.23;;;17.50;49.70;;;;;;6304038;28;20028;-69
2024/04/06 02:47:25;;;;;;;5.78;0.68;;;17.50;49.60;;;;;;6293356;28;20015;-70
2024/04/06 02:50:26;;;;;;;6.32;1.08;;;17.50;49.70;;;;;;6298775;28;20969;-70
2024/04/06 02:53:27;;;;;;;3.15;0.90;;;17.50;49.80;;;;;;6295643;28;20464;-69
2024/04/06 02:56:27;;;;;;;4.38;1.20;;;17.50;49.60;;;;;;6290430;28;20016;-71
2024/04/06 02:59:28;;;;;;;3.20;0.93;;;17.50;50.50;;;;;;6293639;28;20092;-69
2024/04/06 03:02:29;;;;;;;3.30;1.15;;;17.40;49.90;;;;;;6303783;28;20487;-70
2024/04/06 03:05:30;;;;;;;2.25;1.00;;;17.40;50.10;;;;;;6294361;28;20012;-69
2024/04/06 03:08:31;;;;;;;5.07;0.77;;;17.40;50.20;;;;;;6276021;28;20020;-70
2024/04/06 03:11:32;;;;;;;8.05;1.25;;;17.30;50.50;;;;;;6288748;28;20132;-70
2024/04/06 03:14:33;;;;;;;4.43;1.23;;;17.20;50.60;;;;;;6300294;28;20119;-71
2024/04/06 03:17:34;;;;;;;6.30;1.40;;;17.20;50.70;;;;;;6305872;28;20436;-69
2024/04/06 03:20:34;;;;;;;2.47;0.98;;;17.20;50.90;;;;;;6294630;28;20464;-69
2024/04/06 03:23:35;;;;;;;5.82;1.10;;;17.20;51.00;;;;;;6289187;28;20089;-70
2024/04/06 03:26:36;;;;;;;5.55;1.20;;;17.10;51.10;;;;;;6283480;28;20036;-70
2024/04/06 03:29:38;;;;;;;3.28;0.95;;;17.10;51.30;;;;;;6294835;28;20070;-70
2024/04/06 03:32:38;;;;;;;1.25;0.80;;;17.00;51.30;;;;;;6305987;28;20026;-70
2024/04/06 03:35:41;;;;;;;2.60;0.95;;;17.00;51.50;;;;;;6283280;28;20082;-70
2024/04/06 03:38:42;;;;;;;0.88;0.63;;;16.90;51.70;;;;;;6283239;28;20028;-70
2024/04/06 03:41:43;;;;;;;4.57;1.10;;;16.80;51.80;;;;;;6288997;28;20021;-69
2024/04/06 03:44:43;;;;;;;3.78;1.13;;;16.80;51.90;;;;;;6302039;28;20035;-70
2024/04/06 03:47:44;;;;;;;1.77;0.93;;;16.80;52.00;;;;;;6283769;28;20046;-70
2024/04/06 03:50:45;;;;;;;9.07;1.48;;;16.70;52.00;;;;;;6292223;28;20031;-69
2024/04/06 03:53:46;;;;;;;8.30;1.50;;;16.70;52.30;;;;;;6292322;28;20121;-70
2024/04/06 03:56:47;;;;;;;5.03;1.27;;;16.60;52.40;;;;;;6293945;28;20452;-70
2024/04/06 03:59:48;;;;;;;1.45;0.70;;;16.60;52.50;;;;;;6305111;28;20073;-71
2024/04/06 04:02:49;;;;;;;10.48;1.38;;;16.50;52.60;;;;;;6272437;28;20521;-70
2024/04/06 04:05:50;;;;;;;2.40;1.02;;;16.50;52.80;;;;;;6286059;28;20207;-70
2024/04/06 04:08:51;;;;;;;4.45;1.08;;;16.50;52.80;;;;;;6276553;28;20070;-70
2024/04/06 04:11:52;;;;;;;2.80;0.98;;;16.50;52.90;;;;;;6292813;28;20452;-70
2024/04/06 04:14:52;;;;;;;4.65;0.85;;;16.40;53.00;;;;;;6289933;28;20530;-67
2024/04/06 04:17:53;;;;;;;2.00;1.10;;;16.40;53.10;;;;;;6298884;28;20028;-73
2024/04/06 04:20:54;;;;;;;4.82;1.25;;;16.30;53.10;;;;;;6305925;28;20077;-69
2024/04/06 04:23:55;;;;;;;2.17;1.08;;;16.40;53.20;;;;;;6301732;28;20024;-71
2024/04/06 04:26:56;;;;;;;3.55;1.38;;;16.40;53.30;;;;;;6292105;28;20114;-70
2024/04/06 04:29:58;;;;;;;2.88;0.93;;;16.30;53.30;;;;;;6283596;28;20134;-70
2024/04/06 04:32:58;;;;;;;4.47;1.45;;;16.30;53.30;;;;;;6285492;28;20051;-69
2024/04/06 04:35:59;;;;;;;3.25;1.20;;;16.30;53.30;;;;;;6282242;28;20055;-69
2024/04/06 04:39:00;;;;;;;5.78;1.52;;;16.30;53.40;;;;;;6282381;28;20437;-70
2024/04/06 04:42:01;;;;;;;1.45;0.98;;;16.30;53.40;;;;;;6273186;28;20210;-70
2024/04/06 04:45:10;;;;;;;3.72;1.15;;;16.30;53.40;;;;;;6306721;28;20035;-70
2024/04/06 04:48:11;;;;;;;6.18;0.77;;;16.30;53.30;;;;;;6292096;28;20012;-69
2024/04/06 04:51:11;;;;;;;4.65;1.15;;;16.30;53.20;;;;;;6290730;28;20032;-69
2024/04/06 04:54:12;;;;;;;4.55;1.10;;;16.30;53.30;;;;;;6300851;28;20429;-69
2024/04/06 04:57:13;;;;;;;3.95;0.90;;;16.40;53.30;;;;;;6288423;28;20048;-69
2024/04/06 05:00:14;;;;;;;5.35;0.88;;;16.30;53.30;;;;;;6302201;28;20024;-70
2024/04/06 05:03:15;;;;;;;4.70;1.42;;;16.20;53.50;;;;;;6298332;28;20100;-69
2024/04/06 05:06:16;;;;;;;3.72;0.80;;;16.30;53.60;;;;;;6293080;28;20476;-70
2024/04/06 05:09:17;;;;;;;3.15;1.10;;;16.20;53.70;;;;;;6282225;28;20016;-71
2024/04/06 05:12:18;;;;;;;7.05;1.42;;;16.20;53.70;;;;;;6300401;28;20461;-69
2024/04/06 05:15:21;;;;;;;3.42;1.13;;;16.20;53.80;;;;;;6303133;28;20028;-70
2024/04/06 05:18:22;;;;;;;6.93;1.17;;;16.20;53.80;;;;;;6289822;28;20083;-68
2024/04/06 05:21:24;;;;;;;4.22;1.20;;;16.20;53.80;;;;;;6295678;28;20452;-70
2024/04/06 05:24:25;;;;;;;3.13;0.77;;;16.20;53.80;;;;;;6307713;28;20181;-70
2024/04/06 05:27:26;;;;;;;8.52;1.17;;;16.20;53.80;;;;;;6299119;28;20017;-73
2024/04/06 05:30:27;;;;;;;2.95;1.27;;;16.20;54.40;;;;;;6285862;28;20025;-70
2024/04/06 05:33:28;;;;;;;2.83;0.98;;;16.30;53.70;;;;;;6292299;28;20025;-69
2024/04/06 05:36:29;;;;;;;8.68;0.80;;;16.20;53.70;;;;;;6277462;28;20111;-71
2024/04/06 05:39:30;;;;;;;8.77;1.33;;;16.20;53.60;;;;;;6306507;28;20480;-69
2024/04/06 05:42:31;;;;;;;3.05;1.02;;;16.30;53.60;;;;;;6290445;28;20028;-68
2024/04/06 05:45:32;;;;;;;5.60;1.27;;;16.30;53.60;;;;;;6299584;28;20100;-68
2024/04/06 05:48:33;;;;;;;6.07;1.00;;;16.30;53.70;;;;;;6304123;28;20020;-69
2024/04/06 05:51:34;;;;;;;2.42;0.80;;;16.30;53.60;;;;;;6295591;28;20135;-68
2024/04/06 05:54:35;;;;;;;6.03;0.80;;;16.30;53.70;;;;;;6293972;28;20024;-70
2024/04/06 05:57:35;;;;;;;7.75;1.75;;;16.30;53.70;;;;;;6301246;28;20024;-69
2024/04/06 06:00:36;;;;;;;5.93;1.50;;;16.30;53.70;;;;;;6271267;28;20108;-70
2024/04/06 06:03:37;;;;;;;2.58;0.98;;;16.30;53.70;;;;;;6310614;28;20443;-71
2024/04/06 06:06:38;;;;;;;2.90;1.13;;;16.30;53.70;;;;;;6294059;28;20108;-69
2024/04/06 06:09:39;;;;;;;2.78;0.82;;;16.40;53.60;;;;;;6298037;28;20048;-70
2024/04/06 06:12:40;;;;;;;4.20;1.27;;;16.40;53.60;;;;;;6307074;28;20448;-69
2024/04/06 06:15:41;;;;;;;6.75;1.58;;;16.40;53.60;;;;;;6292813;28;20449;-71
2024/04/06 06:18:41;;;;;;;4.00;1.38;;;16.40;53.60;;;;;;6304959;28;20085;-68
2024/04/06 06:21:42;;;;;;;2.88;1.40;;;16.40;53.60;;;;;;6290155;28;20433;-68
2024/04/06 06:24:43;;;;;;;6.13;1.63;;;16.40;53.60;;;;;;6305325;28;20024;-69
2024/04/06 06:27:44;;;;;;;7.63;1.38;;;16.50;53.60;;;;;;6303722;28;20020;-69
2024/04/06 06:30:46;;;;;;;8.25;1.27;;;16.50;53.60;;;;;;6308609;28;20024;-68
2024/04/06 06:33:47;;;;;;;8.57;1.85;;;16.40;53.70;;;;;;6287726;28;20021;-70
2024/04/06 06:36:51;;;;;;;1.38;1.05;;;16.40;53.80;;;;;;6298153;28;20033;-69
2024/04/06 06:39:52;;;;;;;5.05;1.27;;;16.40;53.80;;;;;;6309052;28;20035;-69
2024/04/06 06:42:53;;;;;;;6.53;1.17;;;16.40;53.80;;;;;;6295438;28;20325;-69
2024/04/06 06:45:54;;;;;;;3.75;1.40;;;16.40;53.80;;;;;;6292809;28;20024;-69
2024/04/06 06:48:54;;;;;;;3.85;1.30;;;16.40;53.80;;;;;;6292283;28;20023;-72
2024/04/06 06:51:55;;;;;;;5.35;1.10;;;16.50;53.70;;;;;;6286857;28;20181;-69
2024/04/06 06:54:56;;;;;;;2.72;1.00;;;16.50;53.60;;;;;;6287016;28;20043;-70
2024/04/06 06:57:57;;;;;;;6.82;1.35;;;16.50;53.50;;;;;;6291041;28;20036;-68
2024/04/06 07:00:58;;;;;;;6.53;1.30;;;16.60;53.40;;;;;;6289076;28;20012;-69
2024/04/06 07:03:58;;;;;;;2.83;1.40;;;16.70;53.30;;;;;;6287923;28;20035;-68
2024/04/06 07:06:59;;;;;;;5.32;1.27;;;16.80;53.10;;;;;;6266937;28;20115;-69
2024/04/06 07:10:00;;;;;;;7.00;1.40;;;16.90;53.00;;;;;;6284405;28;20106;-69
2024/04/06 07:13:01;;;;;;;2.38;1.23;;;17.00;53.00;;;;;;6266946;28;20096;-69
2024/04/06 07:16:12;;;;;;;3.67;1.50;;;17.10;52.80;;;;;;6289082;28;20020;-71
2024/04/06 07:19:12;;;;;;;4.78;1.30;;;17.20;52.50;;;;;;6286167;28;20150;-70
2024/04/06 07:22:13;;;;;;;3.15;1.60;;;17.20;52.30;;;;;;6284276;28;20016;-70
2024/04/06 07:25:14;;;;;;;3.38;1.13;;;17.40;52.20;;;;;;6288149;28;20640;-70
2024/04/06 07:28:16;;;;;;;4.70;1.25;;;17.50;51.90;;;;;;6285791;28;20660;-70
2024/04/06 07:31:17;;;;;;;5.55;1.05;;;17.70;51.60;;;;;;6286882;28;20081;-70
2024/04/06 07:34:19;;;;;;;6.18;1.30;;;17.90;51.30;;;;;;6288032;28;20492;-70
2024/04/06 07:37:19;;;;;;;3.72;1.10;;;18.00;50.90;;;;;;6287471;28;20025;-69
2024/04/06 07:40:20;;;;;;;0.85;0.60;;;18.10;50.60;;;;;;6286679;28;21551;-70
2024/04/06 07:43:21;;;;;;;2.47;0.85;;;18.20;50.40;;;;;;6282261;28;20028;-69
2024/04/06 07:46:22;;;;;;;3.08;1.10;;;18.30;50.00;;;;;;6268945;28;20433;-69
2024/04/06 07:49:23;;;;;;;9.98;1.13;;;18.40;49.70;;;;;;6284287;28;20127;-69
2024/04/06 07:52:24;;;;;;;2.30;1.10;;;18.50;49.50;;;;;;6283646;28;20028;-69
2024/04/06 07:55:25;;;;;;;2.38;1.20;;;18.60;49.20;;;;;;6283394;28;20012;-67
2024/04/06 07:58:26;;;;;;;12.18;1.10;;;18.80;49.00;;;;;;6288503;28;20435;-69
2024/04/06 08:01:26;;;;;;;1.95;0.80;;;18.90;48.70;;;;;;6288214;28;20026;-70
2024/04/06 08:04:27;;;;;;;3.28;1.42;;;19.10;48.30;;;;;;6270184;28;20036;-69
2024/04/06 08:07:28;;;;;;;2.92;1.10;;;19.20;48.00;;;;;;6283491;28;20030;-69
2024/04/06 08:10:29;;;;;;;5.40;1.17;;;19.20;47.90;;;;;;6279710;28;20034;-71
2024/04/06 08:13:31;;;;;;;2.67;1.08;;;19.30;47.60;;;;;;6287813;28;20044;-69
2024/04/06 08:16:31;;;;;;;8.07;1.08;;;19.40;47.30;;;;;;6285947;28;20094;-69
2024/04/06 08:19:32;;;;;;;2.05;1.23;;;19.50;47.10;;;;;;6273684;28;20019;-70
2024/04/06 08:22:33;;;;;;;5.35;1.30;;;19.50;46.80;;;;;;6287716;28;20037;-71
2024/04/06 08:25:34;;;;;;;3.90;1.00;;;19.60;46.60;;;;;;6296481;28;20418;-70
2024/04/06 08:28:35;;;;;;;1.90;1.00;;;19.70;46.50;;;;;;6276954;28;20131;-71
2024/04/06 08:31:36;;;;;;;2.92;0.80;;;19.80;46.20;;;;;;6290185;28;20069;-72
2024/04/06 08:34:37;;;;;;;4.07;1.20;;;19.90;46.10;;;;;;6291583;28;21256;-71
2024/04/06 08:37:38;;;;;;;2.63;0.85;;;20.00;45.80;;;;;;6291841;28;20504;-70
2024/04/06 08:40:41;;;;;;;3.30;0.73;;;20.10;45.50;;;;;;6290404;28;20444;-71
2024/04/06 08:43:44;;;;;;;3.83;1.20;;;20.10;45.40;;;;;;6292970;28;20115;-71
2024/04/06 08:46:45;;;;;;;8.45;1.25;;;20.20;45.30;;;;;;6293534;28;20116;-72
2024/04/06 08:49:47;;;;;;;3.70;0.90;;;20.30;45.10;;;;;;6279535;28;20024;-72
2024/04/06 08:52:48;;;;;;;5.70;1.40;;;20.40;44.90;;;;;;6273858;28;20198;-71
2024/04/06 08:55:49;;;;;;;2.97;0.93;;;20.40;45.20;;;;;;6291598;28;20012;-71
2024/04/06 08:58:50;;;;;;;2.80;0.98;;;20.40;44.50;;;;;;6299526;28;20052;-70
2024/04/06 09:01:51;;;;;;;5.00;1.40;;;20.50;44.30;;;;;;6302059;28;20026;-70
2024/04/06 09:04:52;;;;;;;2.17;1.20;;;20.60;44.20;;;;;;6295794;28;20527;-70
2024/04/06 09:07:53;;;;;;;8.75;1.60;;;20.70;44.10;;;;;;6293742;28;20159;-70
2024/04/06 09:10:57;;;;;;;2.08;1.30;;;20.80;44.10;;;;;;6281650;28;20028;-70
2024/04/06 09:14:02;;;;;;;5.38;1.40;;;21.00;44.00;;;;;;6285240;28;20123;-70
2024/04/06 09:17:04;;;;;;;2.20;1.17;;;21.10;43.70;;;;;;6299828;28;20121;-71
2024/04/06 09:20:06;;;;;;;3.03;0.88;;;21.30;43.40;;;;;;6290378;28;20009;-71
2024/04/06 09:23:07;;;;;;;7.45;0.82;;;21.40;43.10;;;;;;6271572;28;20448;-72
2024/04/06 09:26:08;;;;;;;4.78;0.85;;;21.50;42.50;;;;;;6299118;28;20036;-71
2024/04/06 09:29:09;;;;;;;3.33;1.13;;;21.50;42.00;;;;;;6298407;28;20498;-71
2024/04/06 09:32:14;;;;;;;2.90;1.17;;;21.50;41.90;;;;;;6303070;28;20024;-70
2024/04/06 09:35:15;;;;;;;3.58;1.35;;;21.50;41.50;;;;;;6302935;28;20019;-72
2024/04/06 09:38:16;;;;;;;2.15;0.80;;;21.50;41.60;;;;;;6265635;28;20021;-71
2024/04/06 09:41:21;;;;;;;3.60;1.30;;;21.60;41.70;;;;;;6298817;28;20020;-71
2024/04/06 09:44:24;;;;;;;2.05;0.90;;;21.50;41.40;;;;;;6303999;28;20440;-70
2024/04/06 09:47:25;;;;;;;2.17;0.90;;;21.50;41.30;;;;;;6306360;28;20020;-70
2024/04/06 09:50:27;;;;;;;4.28;1.40;;;21.60;41.00;;;;;;6301407;28;20032;-72
2024/04/06 09:53:29;;;;;;;3.42;1.08;;;21.70;40.70;;;;;;6303948;28;20027;-72
2024/04/06 09:56:30;;;;;;;3.50;1.10;;;21.80;40.40;;;;;;6304397;28;20077;-71
2024/04/06 09:59:31;;;;;;;4.30;0.98;;;22.00;40.30;;;;;;6297690;28;20043;-72
2024/04/06 10:02:33;;;;;;;4.30;1.08;;;22.10;40.00;;;;;;6274834;28;20024;-70
2024/04/06 10:05:38;;;;;;;4.35;1.08;;;22.20;39.70;;;;;;6300757;28;20024;-71
2024/04/06 10:08:52;;;;;;;1.67;0.80;;;22.30;39.40;;;;;;6296139;28;20090;-70
2024/04/06 10:12:00;;;;;;;2.90;1.27;;;22.40;38.70;;;;;;6295169;28;20103;-69
2024/04/06 10:15:05;;;;;;;3.20;1.40;;;22.60;38.70;;;;;;6304909;28;20451;-71
2024/04/06 10:18:07;;;;;;;0.82;0.68;;;22.70;38.30;;;;;;6291142;28;20032;-73
2024/04/06 10:21:10;;;;;;;4.55;1.20;;;22.90;38.00;;;;;;6299068;28;20380;-73
2024/04/06 10:24:16;;;;;;;3.30;1.20;;;23.10;37.50;;;;;;6290764;28;20369;-71
2024/04/06 10:27:17;;;;;;;7.45;1.80;;;23.30;36.90;;;;;;6269163;28;20028;-73
2024/04/06 10:30:18;;;;;;;2.17;0.73;;;23.40;36.50;;;;;;6285314;28;20023;-71
2024/04/06 10:33:19;;;;;;;2.05;0.70;;;23.60;36.20;;;;;;6270360;28;20475;-71
2024/04/06 10:36:20;;;;;;;4.50;1.40;;;23.80;35.80;;;;;;6271541;28;20127;-72
2024/04/06 10:39:22;;;;;;;1.27;0.88;;;23.90;35.60;;;;;;6287926;28;20040;-70
2024/04/06 10:42:26;;;;;;;5.97;0.95;;;24.00;35.20;;;;;;6267454;28;20084;-71
2024/04/06 10:45:27;;;;;;;4.50;0.70;;;24.30;34.80;;;;;;6268869;28;20056;-71
2024/04/06 10:48:28;;;;;;;5.72;0.80;;;24.80;34.20;;;;;;6287884;28;20024;-71
2024/04/06 10:51:28;;;;;;;1.85;0.68;;;25.30;33.30;;;;;;6286140;28;20047;-71
2024/04/06 10:54:29;;;;;;;5.93;0.98;;;25.80;32.80;;;;;;6285600;28;20473;-72
2024/04/06 10:57:30;;;;;;;2.35;0.93;;;26.20;31.80;;;;;;6286745;28;20024;-71
2024/04/06 11:00:31;;;;;;;2.83;0.73;;;26.60;31.30;;;;;;6287709;28;20020;-71
2024/04/06 11:03:33;;;;;;;1.42;0.60;;;26.90;30.80;;;;;;6270001;28;20115;-72
2024/04/06 11:06:34;;;;;;;2.60;0.90;;;27.20;30.10;;;;;;6292191;28;20008;-72
2024/04/06 11:09:35;;;;;;;2.00;1.33;;;27.30;29.60;;;;;;6290307;28;20452;-71
2024/04/06 11:12:37;;;;;;;2.00;0.85;;;27.40;29.30;;;;;;6302617;28;20149;-72
2024/04/06 11:15:40;;;;;;;2.53;1.02;;;27.60;29.40;;;;;;6302106;28;20135;-70
2024/04/06 11:18:42;;;;;;;3.03;1.00;;;27.80;29.00;;;;;;6293124;28;20131;-70
2024/04/06 11:21:43;;;;;;;2.83;0.75;;;28.10;29.00;;;;;;6293896;28;20098;-71
2024/04/06 11:24:48;;;;;;;3.38;1.58;;;28.40;28.70;;;;;;6292638;28;20459;-71
2024/04/06 11:27:53;;;;;;;3.60;0.90;;;28.60;28.20;;;;;;6276835;28;20028;-71
2024/04/06 11:30:54;;;;;;;3.85;1.10;;;28.80;28.10;;;;;;6303086;28;20016;-71
2024/04/06 11:33:56;;;;;;;4.63;1.00;;;29.10;27.70;;;;;;6291985;28;20416;-71
2024/04/06 11:36:59;;;;;;;0.52;0.52;;;29.20;27.30;;;;;;6273241;28;20106;-71
2024/04/06 11:40:00;;;;;;;6.60;0.80;;;29.30;27.10;;;;;;6297436;28;20034;-71
2024/04/06 11:43:01;;;;;;;3.03;0.98;;;29.40;26.90;;;;;;6298123;28;20376;-70
2024/04/06 11:46:02;;;;;;;1.60;1.05;;;29.60;26.60;;;;;;6299102;28;20497;-70
2024/04/06 11:49:04;;;;;;;4.22;1.48;;;29.80;26.50;;;;;;6282868;28;20059;-71
2024/04/06 11:52:04;;;;;;;2.72;0.77;;;30.10;26.50;;;;;;6276420;28;20047;-68
2024/04/06 11:55:05;;;;;;;3.40;0.77;;;30.50;26.30;;;;;;6295012;28;20035;-71
2024/04/06 11:58:06;;;;;;;1.33;0.60;;;31.00;25.90;;;;;;6291589;28;20519;-71
2024/04/06 12:01:07;;;;;;;1.73;0.90;;;31.40;25.30;;;;;;6277984;28;20054;-70
2024/04/06 12:04:08;;;;;;;0.95;0.60;;;31.70;24.80;;;;;;6290674;28;20216;-71
2024/04/06 12:07:09;;;;;;;3.90;1.10;;;31.90;24.40;;;;;;6303105;28;20171;-70
2024/04/06 12:10:10;;;;;;;3.03;0.80;;;32.20;23.80;;;;;;6294720;28;20013;-69
2024/04/06 12:13:11;;;;;;;3.13;0.80;;;32.50;23.50;;;;;;6299785;28;20048;-71
2024/04/06 12:16:12;;;;;;;3.08;0.85;;;32.70;23.30;;;;;;6297698;28;20077;-70
2024/04/06 12:19:13;;;;;;;1.05;0.52;;;32.90;22.90;;;;;;6303096;28;20468;-70
2024/04/06 12:22:14;;;;;;;4.72;0.95;;;33.40;22.50;;;;;;6295299;28;20028;-71
2024/04/06 12:25:15;;;;;;;1.27;0.70;;;33.80;22.10;;;;;;6279668;28;20047;-71
2024/04/06 12:28:16;;;;;;;0.95;0.70;;;34.30;21.80;;;;;;6294399;28;20077;-70
2024/04/06 12:31:17;;;;;;;9.82;0.90;;;35.00;21.10;;;;;;6295844;28;20020;-71
2024/04/06 12:34:18;;;;;;;4.97;0.88;;;35.70;20.40;;;;;;6292779;28;20015;-72
2024/04/06 12:37:19;;;;;;;3.13;0.75;;;36.40;19.40;;;;;;6292064;28;20046;-70
2024/04/06 12:40:20;;;;;;;6.72;0.98;;;36.80;18.80;;;;;;6272718;28;20027;-70
2024/04/06 12:43:22;;;;;;;1.50;0.80;;;37.00;18.90;;;;;;6289038;28;20016;-71
2024/04/06 12:46:23;;;;;;;1.13;0.80;;;37.20;18.60;;;;;;6288777;28;20031;-71
2024/04/06 12:49:24;;;;;;;2.00;0.77;;;37.40;18.50;;;;;;6284439;28;20504;-71
2024/04/06 12:52:25;;;;;;;1.50;0.65;;;37.50;18.60;;;;;;6274703;28;20122;-71
2024/04/06 12:55:26;;;;;;;0.90;0.68;;;38.10;18.60;;;;;;6301626;28;20332;-70
2024/04/06 12:58:27;;;;;;;0.90;0.60;;;38.70;18.30;;;;;;6271495;28;20069;-71
2024/04/06 13:01:28;;;;;;;1.90;0.70;;;39.20;17.70;;;;;;6288298;28;20020;-70
2024/04/06 13:04:29;;;;;;;1.25;0.50;;;39.60;17.20;;;;;;6288471;28;20540;-73
2024/04/06 13:07:31;;;;;;;3.60;0.75;;;39.60;16.70;;;;;;6289260;28;20024;-71
2024/04/06 13:10:32;;;;;;;0.75;0.60;;;39.50;16.60;;;;;;6286384;28;20036;-73
2024/04/06 13:13:32;;;;;;;1.50;0.70;;;39.30;16.60;;;;;;6297507;28;20103;-72
2024/04/06 13:16:33;;;;;;;5.25;0.80;;;39.30;16.70;;;;;;6298407;28;20047;-72
2024/04/06 13:19:34;;;;;;;7.88;0.68;;;39.10;16.60;;;;;;6304855;28;20023;-72
2024/04/06 13:22:39;;;;;;;0.80;0.60;;;39.00;16.50;;;;;;6302721;28;20371;-71
2024/04/06 13:25:40;;;;;;;3.63;0.73;;;38.70;16.40;;;;;;6297733;28;20090;-71
2024/04/06 13:28:41;;;;;;;8.13;0.95;;;38.90;16.70;;;;;;6295585;28;20034;-70
2024/04/06 13:31:43;;;;;;;0.70;0.50;;;39.00;16.70;;;;;;6296808;28;20039;-71
2024/04/06 13:34:51;;;;;;;6.22;0.70;;;38.90;16.30;;;;;;6292334;28;20088;-72
2024/04/06 13:37:52;;;;;;;3.30;0.77;;;38.50;16.00;;;;;;6304848;28;20059;-71
2024/04/06 13:40:53;;;;;;;0.90;0.52;;;37.90;16.50;;;;;;6300140;28;20019;-70
2024/04/06 13:43:54;;;;;;;1.65;0.70;;;37.50;16.60;;;;;;6301628;28;20494;-72
2024/04/06 13:46:55;;;;;;;2.53;0.85;;;36.90;17.00;;;;;;6279425;28;20024;-70
2024/04/06 13:49:55;;;;;;;3.45;0.57;;;36.20;17.40;;;;;;6294282;28;20962;-72
2024/04/06 13:52:56;;;;;;;0.73;0.50;;;35.50;17.90;;;;;;6296329;28;20253;-72
2024/04/06 13:55:57;;;;;;;0.82;0.60;;;34.90;18.20;;;;;;6298673;28;20108;-70
2024/04/06 13:58:58;;;;;;;1.13;0.70;;;34.40;18.30;;;;;;6308115;28;20498;-70
2024/04/06 14:01:59;;;;;;;14.13;0.95;;;33.90;18.50;;;;;;6299060;28;20088;-70
2024/04/06 14:05:00;;;;;;;3.90;0.88;;;33.40;19.10;;;;;;6298079;28;20027;-70
2024/04/06 14:08:01;;;;;;;1.00;0.50;;;33.00;19.50;;;;;;6305400;28;20016;-71
2024/04/06 14:11:03;;;;;;;3.22;0.65;;;32.50;19.90;;;;;;6275564;28;20016;-71
2024/04/06 14:14:18;;;;;;;2.33;0.50;;;32.10;20.40;;;;;;6301721;28;20024;-73
2024/04/06 14:17:21;;;;;;;1.95;0.80;;;31.80;20.60;;;;;;6306781;28;20099;-71
2024/04/06 14:20:22;;;;;;;3.28;0.70;;;31.50;20.80;;;;;;6267158;28;20020;-71
2024/04/06 14:23:23;;;;;;;5.53;0.80;;;31.30;21.30;;;;;;6297708;28;20068;-71
2024/04/06 14:26:24;;;;;;;1.48;0.80;;;31.10;21.80;;;;;;6291135;28;20464;-70
2024/04/06 14:29:25;;;;;;;4.00;0.93;;;30.90;22.20;;;;;;6289104;28;20437;-72
2024/04/06 14:32:26;;;;;;;2.20;0.60;;;30.70;22.50;;;;;;6288399;28;20069;-71
2024/04/06 14:35:27;;;;;;;3.72;0.70;;;30.50;22.80;;;;;;6288591;28;20020;-71
2024/04/06 14:38:28;;;;;;;2.90;0.82;;;30.40;22.90;;;;;;6288622;28;20108;-72
2024/04/06 14:41:29;;;;;;;0.93;0.70;;;30.20;23.30;;;;;;6286748;28;20120;-71
2024/04/06 14:44:31;;;;;;;3.65;0.85;;;30.00;23.40;;;;;;6292527;28;20055;-72
2024/04/06 14:47:33;;;;;;;5.97;0.90;;;29.80;23.60;;;;;;6291161;28;20027;-71
2024/04/06 14:50:33;;;;;;;0.95;0.60;;;29.60;23.90;;;;;;6292159;28;20020;-70
2024/04/06 14:53:34;;;;;;;0.70;0.70;;;29.50;24.30;;;;;;6290014;28;20031;-70
2024/04/06 14:56:36;;;;;;;3.75;0.82;;;29.30;24.60;;;;;;6268956;28;20453;-71
2024/04/06 14:59:37;;;;;;;2.13;1.05;;;29.20;24.80;;;;;;6269693;28;20480;-73
2024/04/06 15:02:40;;;;;;;3.03;0.77;;;29.10;24.90;;;;;;6286678;28;20024;-70
2024/04/06 15:05:42;;;;;;;5.10;0.98;;;29.10;25.00;;;;;;6296514;28;20013;-72
2024/04/06 15:08:47;;;;;;;1.13;0.55;;;29.00;25.10;;;;;;6294713;28;20115;-72
2024/04/06 15:11:48;;;;;;;5.13;0.70;;;29.00;25.20;;;;;;6300349;28;20044;-71
2024/04/06 15:14:49;;;;;;;1.23;0.63;;;29.00;25.40;;;;;;6294282;28;20091;-69
2024/04/06 15:17:50;;;;;;;1.17;0.82;;;28.80;25.50;;;;;;6297185;28;20036;-71
2024/04/06 15:20:52;;;;;;;4.10;0.70;;;28.70;25.70;;;;;;6276262;28;20039;-75
2024/04/06 15:23:53;;;;;;;7.07;0.93;;;28.60;26.40;;;;;;6304612;28;20119;-71
2024/04/06 15:26:54;;;;;;;1.98;0.68;;;28.40;26.10;;;;;;6294560;28;20092;-70
2024/04/06 15:29:55;;;;;;;1.55;0.50;;;28.20;26.30;;;;;;6293842;28;20386;-74
2024/04/06 15:32:56;;;;;;;3.30;1.00;;;28.00;26.40;;;;;;6293370;28;20020;-72
2024/04/06 15:35:57;;;;;;;5.40;1.00;;;28.00;26.70;;;;;;6284397;28;20107;-70
2024/04/06 15:38:58;;;;;;;1.75;0.90;;;27.90;27.00;;;;;;6293513;28;20034;-72
2024/04/06 15:41:58;;;;;;;6.55;0.75;;;27.80;27.10;;;;;;6296234;28;20024;-71